Pagrindinis puslapis
METAR-TAF:

METAR-TAF

Oro uostai :

Geteborgas, Švedija

platuma: 57-47N, ilguma: 011-53E, Aukštis: 20 m

Dabartinis oras

Ataskaita buvo paskelbta 11 minutes, ne 06:20 UTC
Vėjas 7 kt iš Vakarų
Temperatūra 12°C
Drėgmė 88%
Slėgis 1014 hPa
Matomumas 10 km arba daugiau
Su prošvaistėmis ne aukštis 700 ft
Apsiniaukę ne aukštis 900 ft

METAR: ESGP 200620Z 26007KT 9999 BKN007 OVC009 12/10 Q1014

Laikas: 08:31 (06:31 UTC)

Prognozė

Ataskaita buvo paskelbta 1 valandą ir 1 minutes, ne 05:30 UTC
Prognozė galioja nuo 20 metu 06 UTC su 20 metu 15 UTC
Vėjas 9 kt iš Vakarų
Matomumas 10 km arba daugiau
Su prošvaistėmis ne aukštis 800 ft
Tapsmas
nuo 20 metu 08 UTC su 20 metu 10 UTC
Su prošvaistėmis ne aukštis 1500 ft

TAF: ESGP 200530Z 2006/2015 26009KT 9999 BKN008 BECMG 2008/2010 BKN015

Orai ataskaitas ir orų prognozės (METAR, TAF).

turimą stotys yra geltonos ir raudonos taškus žemėlapyje.

Perkelti pele per norėdami pamatyti stoties vardą.

Tada spustelėkite, norėdami matyti oro stebėjimo ir prognozės.

Norėdami pakeisti žemėlapį: spustelėkite ant žalios mygtukų su juodo kryžiaus žemyn,; žalią mygtuką su brūkšneliu, jei norite nutolinti; arba žalių rodyklių gretimoms žemėlapius.


METAR-TAF: